Terminal Aerodrome Forecast
Issued by NWS

Home | Current Version | Previous Version | Text Only | Print | Product List | Glossary On
Versions: 1 2 3 4 5 6 7 8 9 10 11 12 13 14 15 16 17 18
448
FTUS43 KICT 281008 AAA
TAFHUT
TAF AMD
KHUT 281008Z 2810/2906 VRB03KT P6SM SCT100 BKN250
     FM281045 33014G21KT P6SM VCSH SCT045 BKN070
     FM281300 07006KT P6SM SCT100 BKN250
     FM281700 13007KT P6SM SCT050
      TEMPO 2900/2904 5SM TSRA BKN035CB
     FM290500 09009KT P6SM VCSH SCT050 BKN100=

USA.gov is the U.S. government's official web portal to all federal, state and local government web resources and services.